createdAt,value
2023-03-22T00:00:31.771Z,29.95
2023-03-22T00:03:28.201Z,30.95
2023-03-22T00:06:03.247Z,30.55
2023-03-22T00:08:35.323Z,30.77
2023-03-22T00:11:10.353Z,31.08
2023-03-22T00:13:44.300Z,31.08
2023-03-22T00:16:16.462Z,32.35
2023-03-22T00:18:48.965Z,32.60
2023-03-22T00:21:21.449Z,33.75
2023-03-22T00:23:53.490Z,32.65
2023-03-22T00:26:29.049Z,31.70
2023-03-22T00:29:04.367Z,32.70
2023-03-22T00:31:36.746Z,34.22
2023-03-22T00:34:08.796Z,32.92
2023-03-22T00:36:40.640Z,32.88
2023-03-22T00:39:12.949Z,33.08
2023-03-22T00:41:48.225Z,33.35
2023-03-22T00:44:36.312Z,34.50
2023-03-22T00:47:09.357Z,34.00
2023-03-22T00:49:42.181Z,32.80
2023-03-22T00:52:13.790Z,33.80
2023-03-22T00:54:55.371Z,33.10
2023-03-22T00:57:36.711Z,31.35
2023-03-22T01:00:32.502Z,32.75
2023-03-22T01:03:08.886Z,33.42
2023-03-22T01:06:29.513Z,32.13
2023-03-22T01:09:24.196Z,31.02
2023-03-22T01:11:56.496Z,31.42
2023-03-22T01:14:31.988Z,31.48
2023-03-22T01:17:04.037Z,31.83
2023-03-22T01:19:36.089Z,33.38
2023-03-22T01:22:09.406Z,32.33
2023-03-22T01:24:43.871Z,32.80
2023-03-22T01:27:15.746Z,32.70
2023-03-22T01:29:50.127Z,34.38
2023-03-22T01:32:22.145Z,33.65
2023-03-22T01:34:53.991Z,33.70
2023-03-22T01:38:20.486Z,32.00
2023-03-22T01:41:13.549Z,32.08
2023-03-22T01:43:45.908Z,31.80
2023-03-22T01:46:21.048Z,32.20
2023-03-22T01:48:53.531Z,32.22
2023-03-22T01:51:28.013Z,31.55
2023-03-22T01:54:04.207Z,31.38
2023-03-22T01:56:39.419Z,32.50
2023-03-22T01:59:14.849Z,31.42
2023-03-22T02:01:50.201Z,31.60
2023-03-22T02:04:25.384Z,31.27
2023-03-22T02:06:58.352Z,30.90
2023-03-22T02:09:33.883Z,31.38
2023-03-22T02:12:20.382Z,30.55
2023-03-22T02:15:07.762Z,30.30
2023-03-22T02:18:00.038Z,30.50
2023-03-22T02:21:10.654Z,30.35
2023-03-22T02:24:12.640Z,30.75
2023-03-22T02:27:10.894Z,30.55
2023-03-22T02:29:47.790Z,29.85
2023-03-22T02:32:55.600Z,31.40
2023-03-22T02:35:46.943Z,30.83
2023-03-22T02:39:00.825Z,30.90
2023-03-22T02:41:46.415Z,31.45
2023-03-22T02:44:30.272Z,32.85
2023-03-22T02:47:08.114Z,29.52
2023-03-22T02:49:44.771Z,30.38
2023-03-22T02:52:22.238Z,29.85
2023-03-22T02:54:59.784Z,30.13
2023-03-22T02:57:40.210Z,30.85
2023-03-22T03:00:16.221Z,30.30
2023-03-22T03:02:54.288Z,28.25
2023-03-22T03:05:28.677Z,28.85
2023-03-22T03:08:04.218Z,28.70
2023-03-22T03:11:07.952Z,28.10
2023-03-22T03:13:42.953Z,28.55
2023-03-22T03:16:17.794Z,28.88
2023-03-22T03:18:56.429Z,27.35
2023-03-22T03:21:35.175Z,28.70
2023-03-22T03:24:22.932Z,28.58
2023-03-22T03:27:04.340Z,28.50
2023-03-22T03:29:43.732Z,28.75
2023-03-22T03:32:22.807Z,29.17
2023-03-22T03:34:59.780Z,27.50
2023-03-22T03:37:37.362Z,29.52
2023-03-22T03:40:14.284Z,28.52
2023-03-22T03:42:52.028Z,29.02
2023-03-22T03:45:27.431Z,30.00
2023-03-22T03:48:04.063Z,27.55
2023-03-22T03:50:36.356Z,28.40
2023-03-22T03:53:08.590Z,27.42
2023-03-22T03:55:40.844Z,27.13
2023-03-22T03:58:12.809Z,27.10
2023-03-22T04:00:48.241Z,26.65
2023-03-22T04:03:20.337Z,26.05
2023-03-22T04:05:52.800Z,25.63
2023-03-22T04:08:24.878Z,26.48
2023-03-22T04:10:57.371Z,26.85
2023-03-22T04:13:30.081Z,27.02
2023-03-22T04:16:05.272Z,26.98
2023-03-22T04:18:37.440Z,26.70
2023-03-22T04:21:12.495Z,25.60
2023-03-22T04:23:47.132Z,25.05
2023-03-22T04:26:19.660Z,25.48
2023-03-22T04:28:52.032Z,24.20
2023-03-22T04:31:27.354Z,25.45
2023-03-22T04:34:05.915Z,25.73
2023-03-22T04:36:40.188Z,24.70
2023-03-22T04:39:14.219Z,24.65
2023-03-22T04:41:46.731Z,23.95
2023-03-22T04:44:18.769Z,24.02
2023-03-22T04:46:54.512Z,24.27
2023-03-22T04:49:27.321Z,23.20
2023-03-22T04:51:59.649Z,22.85
2023-03-22T04:54:31.630Z,23.42
2023-03-22T04:57:04.109Z,23.83
2023-03-22T04:59:36.238Z,22.73
2023-03-22T05:02:11.150Z,22.88
2023-03-22T05:04:43.176Z,22.60
2023-03-22T05:07:15.569Z,22.33
2023-03-22T05:09:47.602Z,22.00
2023-03-22T05:12:19.879Z,21.08
2023-03-22T05:14:51.879Z,20.98
2023-03-22T05:17:27.039Z,22.20
2023-03-22T05:19:59.069Z,20.27
2023-03-22T05:22:38.380Z,22.83
2023-03-22T05:25:15.298Z,20.45
2023-03-22T05:27:50.524Z,21.27
2023-03-22T05:30:23.159Z,21.52
2023-03-22T05:33:00.799Z,21.65
2023-03-22T05:35:35.062Z,22.63
2023-03-22T05:38:07.954Z,21.58
2023-03-22T05:40:40.353Z,20.20
2023-03-22T05:43:13.279Z,20.55
2023-03-22T05:45:46.047Z,20.23
2023-03-22T05:48:21.249Z,20.27
2023-03-22T05:51:27.518Z,19.58
2023-03-22T05:54:01.408Z,19.00
2023-03-22T05:56:37.065Z,20.63
2023-03-22T05:59:10.188Z,20.48
2023-03-22T06:01:43.885Z,21.38
2023-03-22T06:04:18.893Z,19.02
2023-03-22T06:06:50.782Z,19.38
2023-03-22T06:09:23.148Z,18.80
2023-03-22T06:11:54.852Z,19.13
2023-03-22T06:14:26.962Z,18.77
2023-03-22T06:16:58.519Z,19.98
2023-03-22T06:19:33.369Z,19.20
2023-03-22T06:22:05.213Z,20.13
2023-03-22T06:24:37.404Z,18.45
2023-03-22T06:27:10.372Z,18.77
2023-03-22T06:29:42.709Z,19.65
2023-03-22T06:32:14.497Z,18.95
2023-03-22T06:34:49.283Z,20.48
2023-03-22T06:37:21.101Z,20.48
2023-03-22T06:39:54.015Z,18.73
2023-03-22T06:42:26.534Z,20.23
2023-03-22T06:44:58.120Z,20.50
2023-03-22T06:47:29.728Z,19.95
2023-03-22T06:50:04.087Z,20.65
2023-03-22T06:52:35.565Z,19.63
2023-03-22T06:55:08.299Z,18.65
2023-03-22T06:57:39.516Z,20.00
2023-03-22T07:00:13.092Z,18.67
2023-03-22T07:02:44.338Z,18.85
2023-03-22T07:05:18.412Z,18.73
2023-03-22T07:07:49.994Z,17.50
2023-03-22T07:10:21.632Z,20.05
2023-03-22T07:12:52.576Z,19.20
2023-03-22T07:15:24.660Z,17.98
2023-03-22T07:17:56.307Z,18.90
2023-03-22T07:20:30.754Z,19.20
2023-03-22T07:23:02.240Z,19.25
2023-03-22T07:25:34.975Z,19.20
2023-03-22T07:28:07.301Z,18.52
2023-03-22T07:30:39.101Z,17.98
2023-03-22T07:33:12.670Z,18.33
2023-03-22T07:35:49.238Z,18.02
2023-03-22T07:38:21.437Z,17.40
2023-03-22T07:40:56.226Z,17.67
2023-03-22T07:43:27.991Z,18.52
2023-03-22T07:46:00.946Z,18.13
2023-03-22T07:48:32.835Z,17.92
2023-03-22T07:51:08.286Z,16.48
2023-03-22T07:53:39.687Z,16.45
2023-03-22T07:56:12.698Z,15.15
2023-03-22T07:58:43.926Z,15.80
2023-03-22T08:01:15.654Z,17.00
2023-03-22T08:03:47.293Z,14.68
2023-03-22T08:06:22.840Z,15.80
2023-03-22T08:08:54.055Z,15.25
2023-03-22T08:11:25.837Z,15.68
2023-03-22T08:13:57.366Z,15.70
2023-03-22T08:16:29.050Z,14.90
2023-03-22T08:19:00.564Z,14.32
2023-03-22T08:21:34.912Z,14.48
2023-03-22T08:24:06.616Z,15.27
2023-03-22T08:26:39.843Z,14.30
2023-03-22T08:29:11.426Z,14.77
2023-03-22T08:31:43.248Z,13.70
2023-03-22T08:34:14.667Z,14.15
2023-03-22T08:36:49.388Z,14.60
2023-03-22T08:39:21.818Z,14.15
2023-03-22T08:41:53.841Z,13.82
2023-03-22T08:44:26.000Z,14.55
2023-03-22T08:46:58.181Z,14.30
2023-03-22T08:49:30.281Z,14.98
2023-03-22T08:52:09.368Z,13.90
2023-03-22T08:54:41.310Z,14.25
2023-03-22T08:57:14.637Z,13.43
2023-03-22T08:59:46.651Z,13.75
2023-03-22T09:02:18.867Z,14.20
2023-03-22T09:04:50.889Z,13.05
2023-03-22T09:07:25.960Z,14.45
2023-03-22T09:09:57.610Z,13.20
2023-03-22T09:12:30.048Z,13.43
2023-03-22T09:15:01.727Z,14.00
2023-03-22T09:17:33.752Z,13.55
2023-03-22T09:20:12.407Z,12.95
2023-03-22T09:22:48.037Z,13.15
2023-03-22T09:25:19.744Z,11.93
2023-03-22T09:27:51.443Z,13.63
2023-03-22T09:30:23.146Z,13.38
2023-03-22T09:32:55.359Z,12.18
2023-03-22T09:35:26.984Z,12.18
2023-03-22T09:38:03.765Z,11.55
2023-03-22T09:40:38.401Z,11.70
2023-03-22T09:43:15.885Z,11.77
2023-03-22T09:45:52.184Z,11.35
2023-03-22T09:48:30.295Z,11.30
2023-03-22T09:51:04.820Z,10.98
2023-03-22T09:53:39.531Z,10.93
2023-03-22T09:56:17.739Z,11.13
2023-03-22T09:58:56.286Z,10.65
2023-03-22T10:01:38.055Z,10.63
2023-03-22T10:04:40.331Z,10.27
2023-03-22T10:07:22.466Z,10.50
2023-03-22T10:10:10.055Z,10.40
2023-03-22T10:12:46.669Z,10.43
2023-03-22T10:15:22.542Z,10.93
2023-03-22T10:17:58.998Z,10.43
2023-03-22T10:20:37.754Z,9.90
2023-03-22T10:23:14.541Z,9.70
2023-03-22T10:25:50.527Z,9.85
2023-03-22T10:28:27.100Z,10.30
2023-03-22T10:31:02.266Z,10.18
2023-03-22T10:33:50.588Z,9.77
2023-03-22T10:36:28.015Z,9.85
2023-03-22T10:39:04.144Z,9.02
2023-03-22T10:41:39.910Z,8.68
2023-03-22T10:44:18.369Z,8.77
2023-03-22T10:46:54.032Z,8.40
2023-03-22T10:49:33.778Z,7.95
2023-03-22T10:52:12.729Z,7.85
2023-03-22T10:54:44.251Z,8.32
2023-03-22T10:57:19.187Z,7.68
2023-03-22T10:59:53.030Z,7.85
2023-03-22T11:02:27.829Z,8.20
2023-03-22T11:05:01.913Z,8.20
2023-03-22T11:07:38.427Z,8.27
2023-03-22T11:10:27.682Z,7.85
2023-03-22T11:13:16.706Z,7.07
2023-03-22T11:15:57.577Z,7.25
2023-03-22T11:18:34.050Z,7.53
2023-03-22T11:21:11.368Z,7.25
2023-03-22T11:23:49.025Z,7.13
2023-03-22T11:26:30.547Z,6.32
2023-03-22T11:29:16.767Z,6.90
2023-03-22T11:32:00.644Z,6.70
2023-03-22T11:34:34.607Z,6.60
2023-03-22T11:37:12.410Z,6.20
2023-03-22T11:40:07.275Z,5.78
2023-03-22T11:43:33.604Z,5.63
2023-03-22T11:47:32.011Z,5.32
2023-03-22T11:51:12.660Z,5.07
2023-03-22T12:03:01.503Z,5.30
2023-03-22T12:10:54.476Z,5.68
2023-03-22T12:14:30.310Z,5.78
2023-03-22T12:18:04.077Z,5.80
2023-03-22T12:21:55.195Z,5.53
2023-03-22T12:28:59.000Z,5.40
2023-03-22T12:32:25.367Z,5.43
2023-03-22T12:36:08.385Z,5.43
2023-03-22T12:40:21.974Z,4.93
2023-03-22T12:44:17.833Z,4.57
2023-03-22T12:51:44.552Z,4.78
2023-03-22T12:58:45.254Z,4.03
2023-03-22T13:01:52.612Z,3.70
2023-03-22T13:08:25.994Z,3.15
2023-03-22T13:11:25.073Z,3.40
2023-03-22T13:13:57.519Z,3.15
2023-03-22T13:17:14.162Z,3.00
2023-03-22T13:20:01.665Z,3.03
2023-03-22T13:22:54.205Z,3.08
2023-03-22T13:25:36.166Z,2.90
2023-03-22T13:28:29.244Z,3.08
2023-03-22T13:31:02.332Z,2.95
2023-03-22T13:33:39.138Z,2.65
2023-03-22T13:36:26.472Z,2.83
2023-03-22T13:38:59.439Z,2.80
2023-03-22T13:41:33.642Z,2.67
2023-03-22T13:44:22.066Z,2.95
2023-03-22T13:46:56.559Z,3.10
2023-03-22T13:50:00.124Z,2.70
2023-03-22T13:52:40.293Z,2.80
2023-03-22T13:55:41.873Z,2.50
2023-03-22T13:58:36.700Z,2.78
2023-03-22T14:01:11.478Z,2.97
2023-03-22T14:03:47.830Z,2.90
2023-03-22T14:06:37.633Z,2.80
2023-03-22T14:09:28.836Z,2.70
2023-03-22T14:12:08.695Z,3.00
2023-03-22T14:14:47.624Z,3.17
2023-03-22T14:17:30.656Z,3.00
2023-03-22T14:20:05.285Z,3.00
2023-03-22T14:53:52.124Z,2.40
2023-03-22T14:56:33.535Z,2.60
2023-03-22T14:59:06.927Z,2.30
2023-03-22T15:01:42.929Z,2.63
2023-03-22T15:04:17.151Z,2.70
2023-03-22T15:06:52.195Z,3.00
2023-03-22T15:09:25.468Z,2.10
2023-03-22T15:12:04.281Z,2.38
2023-03-22T15:14:40.042Z,2.13
2023-03-22T15:17:15.825Z,2.42
2023-03-22T15:19:52.507Z,2.58
2023-03-22T15:22:26.621Z,2.92
2023-03-22T15:25:03.455Z,2.47
2023-03-22T15:27:39.919Z,2.33
2023-03-22T15:30:14.845Z,2.60
2023-03-22T15:32:48.998Z,2.20
2023-03-22T15:35:22.482Z,2.60
2023-03-22T15:37:59.370Z,2.55
2023-03-22T15:40:39.995Z,2.45
2023-03-22T15:43:26.083Z,2.47
2023-03-22T15:46:18.788Z,2.72
2023-03-22T15:55:34.834Z,2.33
2023-03-22T15:58:09.956Z,2.80
2023-03-22T16:00:45.211Z,2.45
2023-03-22T16:03:18.902Z,2.65
2023-03-22T16:05:51.676Z,2.70
2023-03-22T16:08:24.755Z,2.45
2023-03-22T16:10:57.915Z,2.60
2023-03-22T16:13:32.354Z,2.85
2023-03-22T16:16:08.132Z,2.72
2023-03-22T16:18:40.247Z,2.70
2023-03-22T16:21:15.058Z,2.78
2023-03-22T16:23:48.593Z,2.60
2023-03-22T16:26:21.030Z,3.25
2023-03-22T16:28:53.024Z,2.05
2023-03-22T16:31:30.301Z,1.92
2023-03-22T16:34:02.319Z,2.20
2023-03-22T16:36:35.615Z,2.17
2023-03-22T16:39:07.669Z,2.13
2023-03-22T16:41:43.566Z,2.08
2023-03-22T16:44:21.005Z,2.70
2023-03-22T16:46:55.676Z,2.75
2023-03-22T16:49:28.871Z,1.80
2023-03-22T16:52:01.132Z,1.98
2023-03-22T16:54:34.952Z,2.22
2023-03-22T16:57:08.091Z,2.70
2023-03-22T16:59:40.207Z,2.92
2023-03-22T17:02:23.770Z,2.25
2023-03-22T17:04:55.796Z,2.40
2023-03-22T17:07:31.385Z,2.30
2023-03-22T17:10:05.351Z,3.33
2023-03-22T17:12:39.189Z,2.47
2023-03-22T17:15:30.576Z,2.50
2023-03-22T17:18:06.233Z,2.72
2023-03-22T17:20:38.550Z,2.30
2023-03-22T17:23:13.654Z,2.75
2023-03-22T17:25:47.702Z,2.50
2023-03-22T17:28:20.022Z,2.78
2023-03-22T17:30:52.257Z,2.78
2023-03-22T17:33:26.626Z,2.10
2023-03-22T17:35:58.880Z,2.10
2023-03-22T17:38:36.196Z,2.05
2023-03-22T17:41:19.496Z,2.25
2023-03-22T17:43:51.278Z,2.40
2023-03-22T17:49:02.517Z,2.70
2023-03-22T17:51:35.176Z,2.53
2023-03-22T17:54:49.232Z,2.70
2023-03-22T17:57:32.960Z,2.80
2023-03-22T17:59:53.979Z,2.70
2023-03-22T18:02:27.864Z,2.40
2023-03-22T18:05:03.480Z,2.55
2023-03-22T18:07:36.532Z,2.42
2023-03-22T18:10:10.552Z,2.28
2023-03-22T18:12:45.632Z,2.22
2023-03-22T18:15:20.933Z,2.63
2023-03-22T18:17:55.736Z,2.78
2023-03-22T18:23:21.204Z,2.92
2023-03-22T18:26:01.944Z,3.30
2023-03-22T18:28:36.801Z,2.75
2023-03-22T18:31:08.863Z,2.67
2023-03-22T18:33:42.212Z,2.35
2023-03-22T18:36:19.674Z,2.70
2023-03-22T18:39:30.854Z,2.90
2023-03-22T18:41:49.136Z,4.60
2023-03-22T18:44:26.660Z,3.78
2023-03-22T18:46:58.183Z,3.08
2023-03-22T18:49:30.545Z,3.35
2023-03-22T18:54:43.748Z,3.67
2023-03-22T18:57:20.443Z,4.03
2023-03-22T18:59:58.600Z,3.95
2023-03-22T19:05:09.816Z,3.60
2023-03-22T19:07:55.590Z,3.35
2023-03-22T19:10:38.156Z,2.95
2023-03-22T19:13:09.811Z,2.80
2023-03-22T19:15:46.811Z,2.65
2023-03-22T19:18:22.606Z,2.70
2023-03-22T19:21:11.268Z,2.67
2023-03-22T19:23:51.316Z,2.97
2023-03-22T19:26:23.424Z,2.65
2023-03-22T19:28:56.772Z,3.10
2023-03-22T19:31:31.837Z,2.40
2023-03-22T19:34:06.460Z,3.00
2023-03-22T19:36:39.569Z,2.90
2023-03-22T19:39:15.188Z,2.63
2023-03-22T19:42:03.840Z,3.10
2023-03-22T19:44:40.685Z,3.10
2023-03-22T19:47:13.919Z,2.90
2023-03-22T19:49:46.258Z,2.83
2023-03-22T19:52:18.441Z,2.35
2023-03-22T19:54:54.996Z,2.78
2023-03-22T19:57:29.952Z,3.08
2023-03-22T20:00:43.802Z,2.72
2023-03-22T20:02:55.064Z,2.83
2023-03-22T20:05:27.865Z,2.70
2023-03-22T20:08:00.143Z,2.67
2023-03-22T20:10:34.959Z,2.30
2023-03-22T20:13:06.714Z,2.50
2023-03-22T20:15:39.806Z,2.45
2023-03-22T20:18:15.451Z,2.50
2023-03-22T20:20:47.435Z,2.58
2023-03-22T20:23:19.743Z,2.65
2023-03-22T20:26:01.332Z,2.72
2023-03-22T20:28:36.141Z,2.70
2023-03-22T20:31:12.240Z,2.50
2023-03-22T20:33:44.490Z,2.80
2023-03-22T20:36:17.241Z,2.90
2023-03-22T20:38:50.575Z,3.00
2023-03-22T20:41:25.170Z,3.17
2023-03-22T20:44:00.355Z,2.65
2023-03-22T20:46:32.349Z,3.30
2023-03-22T20:49:04.756Z,2.83
2023-03-22T20:51:36.995Z,2.90
2023-03-22T20:54:09.695Z,2.67
2023-03-22T20:56:44.537Z,2.70
2023-03-22T20:59:18.934Z,3.20
2023-03-22T21:01:51.228Z,3.25
2023-03-22T21:04:23.620Z,2.88
2023-03-22T21:06:55.800Z,2.85
2023-03-22T21:09:27.961Z,2.80
2023-03-22T21:12:02.545Z,2.72
2023-03-22T21:14:35.757Z,2.58
2023-03-22T21:17:07.736Z,2.53
2023-03-22T21:19:39.759Z,2.60
2023-03-22T21:22:13.091Z,3.20
2023-03-22T21:24:45.099Z,2.83
2023-03-22T21:27:20.813Z,3.65
2023-03-22T21:29:53.546Z,3.00
2023-03-22T21:32:26.427Z,8.75
2023-03-22T21:34:58.146Z,2.65
2023-03-22T21:37:32.309Z,2.58
2023-03-22T21:40:07.522Z,3.45
2023-03-22T21:42:47.200Z,2.50
2023-03-22T21:45:19.039Z,2.60
2023-03-22T21:47:53.556Z,2.63
2023-03-22T21:50:25.862Z,2.30
2023-03-22T21:52:57.553Z,2.30
2023-03-22T21:55:33.151Z,2.80
2023-03-22T21:58:08.131Z,2.78
2023-03-22T22:00:40.154Z,3.10
2023-03-22T22:03:12.566Z,2.80
2023-03-22T22:05:52.113Z,2.80
2023-03-22T22:08:24.714Z,2.70
2023-03-22T22:10:58.150Z,3.20
2023-03-22T22:13:35.057Z,2.20
2023-03-22T22:16:15.646Z,2.60
2023-03-22T22:18:47.410Z,2.83
2023-03-22T22:21:21.096Z,2.95
2023-03-22T22:23:53.808Z,2.70
2023-03-22T22:26:29.443Z,3.55
2023-03-22T22:29:07.262Z,3.30
2023-03-22T22:31:44.238Z,2.72
2023-03-22T22:34:16.668Z,3.20
2023-03-22T22:36:48.977Z,2.50
2023-03-22T22:39:20.526Z,2.53
2023-03-22T22:41:54.884Z,3.15
2023-03-22T22:44:29.223Z,3.00
2023-03-22T22:47:01.271Z,2.70
2023-03-22T22:49:34.559Z,2.35
2023-03-22T22:52:09.686Z,2.67
2023-03-22T22:54:41.255Z,2.30
2023-03-22T22:57:13.129Z,2.70
2023-03-22T22:59:47.466Z,2.58
2023-03-22T23:02:19.220Z,2.80
2023-03-22T23:04:52.940Z,2.85
2023-03-22T23:07:24.712Z,2.90
2023-03-22T23:09:57.276Z,2.45
2023-03-22T23:12:30.632Z,2.65
2023-03-22T23:15:06.249Z,2.50
2023-03-22T23:17:41.442Z,2.42
2023-03-22T23:20:14.155Z,2.60
2023-03-22T23:22:50.720Z,2.80
2023-03-22T23:25:22.432Z,2.70
2023-03-22T23:27:57.567Z,2.85
2023-03-22T23:30:32.406Z,2.80
2023-03-22T23:33:04.619Z,2.90
2023-03-22T23:35:36.829Z,2.67
2023-03-22T23:38:08.885Z,3.13
2023-03-22T23:40:58.318Z,3.00
2023-03-22T23:43:30.836Z,2.97
2023-03-22T23:46:06.226Z,2.97
2023-03-22T23:48:38.869Z,2.60
2023-03-22T23:51:13.205Z,2.80
2023-03-22T23:53:46.427Z,2.70
2023-03-22T23:56:21.795Z,2.80
2023-03-22T23:58:55.346Z,2.70
